Time;durP1;ratioP1;P1;durP2;ratioP2;P2;SDS_P1;SDS_P2;PMS_P1;PMS_P2;Temp;Humidity;BMP_temperature;BMP_pressure;BME280_temperature;BME280_humidity;BME280_pressure;Samples;Min_cycle;Max_cycle;Signal;HPM_P1;HPM_P2
2021/11/17 02:26:58;;;;;;;22.15;11.48;;;;;;;-0.69;65.97;102385.95;1811752;77;25802;-62
2021/11/17 02:29:48;;;;;;;24.65;12.43;;;;;;;-0.74;66.04;102383.39;1811567;77;25709;-62
2021/11/17 02:32:39;;;;;;;25.80;12.65;;;;;;;-0.80;66.13;102386.13;1807613;78;27571;-63
2021/11/17 02:35:38;;;;;;;21.60;11.73;;;;;;;-0.85;66.23;102382.70;1799671;78;25702;-63
2021/11/17 02:38:28;;;;;;;23.05;11.97;;;;;;;-0.92;66.42;102383.66;1799115;79;25645;-62
2021/11/17 02:41:28;;;;;;;24.43;12.03;;;;;;;-0.99;66.28;102385.54;1798225;78;26463;-62
2021/11/17 02:44:37;;;;;;;21.30;11.20;;;;;;;-1.00;66.53;102370.58;1800250;79;25695;-62
2021/11/17 02:47:46;;;;;;;24.27;11.20;;;;;;;-1.01;66.38;102374.97;1800155;78;27461;-62
2021/11/17 02:50:53;;;;;;;23.83;12.00;;;;;;;-1.05;66.50;102378.58;1800012;79;25738;-63
2021/11/17 02:53:43;;;;;;;22.80;12.00;;;;;;;-1.04;66.55;102378.11;1800110;78;25711;-63
2021/11/17 02:56:50;;;;;;;25.02;11.22;;;;;;;-1.05;66.57;102369.33;1798738;78;25920;-63
2021/11/17 02:59:41;;;;;;;24.60;12.33;;;;;;;-1.05;66.52;102362.72;1800226;78;26459;-63
2021/11/17 03:02:52;;;;;;;24.25;11.20;;;;;;;-1.05;66.51;102364.05;1800110;79;27484;-62
2021/11/17 03:05:41;;;;;;;24.15;11.70;;;;;;;-1.07;66.64;102355.69;1803532;78;25805;-62
2021/11/17 03:08:33;;;;;;;22.45;12.05;;;;;;;-1.09;66.65;102351.76;1811640;78;25676;-62
2021/11/17 03:11:41;;;;;;;19.10;10.23;;;;;;;-1.11;66.53;102356.19;1793460;79;25919;-63
2021/11/17 03:14:28;;;;;;;17.70;10.80;;;;;;;-1.11;66.64;102349.16;1793507;79;26121;-63
2021/11/17 03:17:29;;;;;;;23.22;11.57;;;;;;;-1.19;67.30;102352.35;1792828;79;27489;-63
2021/11/17 03:20:39;;;;;;;26.90;12.78;;;;;;;-1.24;66.87;102344.06;1793443;80;25786;-63
2021/11/17 03:23:19;;;;;;;23.35;11.73;;;;;;;-1.21;67.03;102341.39;1793439;80;25679;-62
2021/11/17 03:26:15;;;;;;;23.98;12.25;;;;;;;-1.16;67.24;102341.72;1792549;79;25782;-62
2021/11/17 03:28:59;;;;;;;27.90;12.53;;;;;;;-1.16;67.14;102332.48;1779706;80;25807;-62
2021/11/17 03:31:46;;;;;;;28.45;12.75;;;;;;;-1.16;67.12;102337.77;1780887;79;27497;-62
2021/11/17 03:34:41;;;;;;;22.75;11.48;;;;;;;-1.15;67.03;102327.63;1774446;80;25715;-62
2021/11/17 03:37:30;;;;;;;29.57;13.03;;;;;;;-1.14;67.15;102317.49;1774047;79;25795;-63
2021/11/17 03:40:02;;;;;;;29.50;11.90;;;;;;;-1.13;67.08;102323.20;1755185;79;25823;-62
2021/11/17 03:43:23;;;;;;;22.95;12.47;;;;;;;-1.12;67.07;102312.21;1774305;80;25760;-62
2021/11/17 03:46:13;;;;;;;24.77;11.63;;;;;;;-1.15;67.00;102306.50;1774346;80;28240;-63
2021/11/17 03:49:02;;;;;;;22.60;12.15;;;;;;;-1.14;67.11;102310.89;1774618;80;25822;-62
2021/11/17 03:51:57;;;;;;;20.92;11.85;;;;;;;-1.12;67.09;102305.14;1774497;80;25723;-62
2021/11/17 03:54:53;;;;;;;25.72;12.75;;;;;;;-1.18;67.36;102302.61;1766649;79;25919;-62
2021/11/17 03:57:44;;;;;;;25.90;12.93;;;;;;;-1.20;67.11;102309.67;1765616;80;25453;-62
2021/11/17 04:00:34;;;;;;;26.17;11.30;;;;;;;-1.19;67.13;102305.25;1765098;79;27527;-62
2021/11/17 04:03:25;;;;;;;21.65;12.25;;;;;;;-1.19;67.22;102305.25;1766851;79;25802;-63
2021/11/17 04:06:09;;;;;;;29.15;11.78;;;;;;;-1.28;67.32;102299.20;1794460;77;25770;-63
2021/11/17 04:08:45;;;;;;;;;;;;;;;-1.27;67.46;102306.23;1798441;78;25840;-63
2021/11/17 04:11:41;;;;;;;25.00;11.63;;;;;;;-1.21;67.76;102309.70;1806135;78;25789;-63
2021/11/17 04:14:40;;;;;;;22.58;11.35;;;;;;;-1.20;67.58;102311.42;1805890;78;27482;-62
2021/11/17 04:17:21;;;;;;;21.23;10.40;;;;;;;-1.20;67.38;102313.62;1783357;78;25863;-62
2021/11/17 04:20:17;;;;;;;21.97;11.45;;;;;;;-1.27;67.20;102306.70;1805944;79;25700;-62
2021/11/17 04:23:07;;;;;;;23.62;11.80;;;;;;;-1.27;67.43;102307.56;1805885;79;26859;-62
2021/11/17 04:25:52;;;;;;;27.05;13.22;;;;;;;-1.27;67.30;102314.63;1806424;79;25803;-62
2021/11/17 04:28:33;;;;;;;26.75;11.73;;;;;;;-1.34;69.12;102314.25;1805770;77;27812;-63
2021/11/17 04:31:46;;;;;;;17.17;11.40;;;;;;;-1.43;69.72;102309.53;1804854;78;25736;-66
2021/11/17 04:34:32;;;;;;;21.42;11.68;;;;;;;-1.54;69.44;102314.53;1770942;80;25665;-62
2021/11/17 04:37:53;;;;;;;27.00;12.93;;;;;;;-1.53;69.23;102307.05;1774422;79;25776;-62
2021/11/17 04:40:54;;;;;;;28.00;14.20;;;;;;;-1.55;69.37;102308.83;1774539;79;25455;-61
2021/11/17 04:44:01;;;;;;;22.62;12.75;;;;;;;-1.58;68.90;102309.74;1774583;79;27477;-62
2021/11/17 04:46:48;;;;;;;22.48;12.40;;;;;;;-1.57;68.99;102303.58;1773986;80;25893;-61
2021/11/17 04:49:54;;;;;;;26.40;12.37;;;;;;;-1.63;69.20;102303.20;1774314;79;25664;-61
2021/11/17 04:52:56;;;;;;;27.87;13.83;;;;;;;-1.70;70.11;102311.23;1773763;80;25803;-62
2021/11/17 04:55:47;;;;;;;20.77;11.88;;;;;;;-1.72;69.62;102305.09;1774456;79;25869;-63
2021/11/17 04:58:28;;;;;;;24.87;11.05;;;;;;;-1.75;70.07;102310.84;1774536;79;27518;-62
2021/11/17 05:01:10;;;;;;;24.23;13.15;;;;;;;-1.72;69.76;102309.06;1774094;80;25794;-62
2021/11/17 05:03:48;;;;;;;24.50;14.58;;;;;;;-1.69;69.63;102309.00;1793452;79;25690;-60
2021/11/17 05:06:38;;;;;;;30.52;16.60;;;;;;;-1.69;69.86;102308.57;1736664;82;25898;-62
2021/11/17 05:09:14;;;;;;;22.90;13.08;;;;;;;-1.66;69.69;102308.97;1729121;80;25840;-62
2021/11/17 05:12:12;;;;;;;30.48;13.83;;;;;;;-1.61;69.69;102305.39;1809772;77;27488;-61
2021/11/17 05:15:00;;;;;;;25.97;13.38;;;;;;;-1.54;69.52;102311.89;1810684;79;25730;-61
2021/11/17 05:17:44;;;;;;;43.23;12.63;;;;;;;-1.52;69.40;102310.97;1810923;79;25645;-61
2021/11/17 05:20:21;;;;;;;;;;;;;;;-1.45;69.49;102311.77;1813596;77;25861;-63
2021/11/17 05:23:11;;;;;;;25.27;12.23;;;;;;;-1.39;69.52;102314.31;1810999;77;25963;-63
2021/11/17 05:25:58;;;;;;;29.82;15.43;;;;;;;-1.37;69.26;102303.30;1810752;79;27467;-62
2021/11/17 05:28:36;;;;;;;30.65;14.28;;;;;;;-1.37;68.99;102303.30;1809504;79;25726;-62
2021/11/17 05:31:18;;;;;;;29.12;15.35;;;;;;;-1.34;68.98;102301.05;1809815;79;25687;-62
2021/11/17 05:34:20;;;;;;;33.13;13.05;;;;;;;-1.32;68.98;102309.83;1746638;79;25809;-62
2021/11/17 05:37:14;;;;;;;35.60;14.55;;;;;;;-1.26;69.17;102309.77;1782779;80;26398;-62
2021/11/17 05:40:10;;;;;;;35.30;14.18;;;;;;;-1.19;69.03;102316.70;1783675;79;27529;-62
2021/11/17 05:42:42;;;;;;;36.63;14.83;;;;;;;-1.12;69.02;102312.21;1781816;80;25928;-62
2021/11/17 05:45:26;;;;;;;26.17;12.58;;;;;;;-1.06;68.94;102310.79;1778145;79;25707;-62
2021/11/17 05:48:20;;;;;;;;;;;;;;;-1.01;68.95;102318.17;1807748;77;25997;-62
2021/11/17 05:51:11;;;;;;;31.10;13.38;;;;;;;-1.00;68.79;102322.57;1805131;79;25781;-62
2021/11/17 05:54:10;;;;;;;24.07;11.85;;;;;;;-0.95;68.59;102320.75;1804274;78;27496;-61
2021/11/17 05:57:06;;;;;;;24.77;12.90;;;;;;;-0.95;68.47;102317.22;1805056;79;25832;-62
2021/11/17 05:59:44;;;;;;;28.75;12.50;;;;;;;-0.95;68.28;102322.50;1712455;83;25897;-62
2021/11/17 06:02:48;;;;;;;29.72;12.13;;;;;;;-0.96;68.25;102316.36;1716218;81;25912;-61
2021/11/17 06:05:14;;;;;;;32.73;12.98;;;;;;;-0.87;68.26;102318.43;1682163;84;25973;-63
2021/11/17 06:07:41;;;;;;;28.23;13.28;;;;;;;-0.78;68.35;102320.92;1680225;84;27483;-62
2021/11/17 06:10:16;;;;;;;33.60;14.35;;;;;;;-0.75;68.11;102321.31;1712846;83;25784;-63
2021/11/17 06:12:43;;;;;;;42.75;20.52;;;;;;;-0.73;67.93;102319.53;1690064;82;25863;-62
2021/11/17 06:15:15;;;;;;;49.77;24.27;;;;;;;-0.71;67.98;102321.25;1713821;82;25938;-62
2021/11/17 06:17:46;;;;;;;50.08;21.20;;;;;;;-0.67;68.12;102324.70;1713695;83;25810;-62
2021/11/17 06:20:17;;;;;;;31.85;14.47;;;;;;;-0.62;68.09;102314.06;1713800;83;27453;-63
2021/11/17 06:22:48;;;;;;;27.50;13.10;;;;;;;-0.60;68.00;102308.30;1713841;83;25825;-62
2021/11/17 06:25:18;;;;;;;37.67;15.40;;;;;;;-0.55;68.08;102312.61;1713169;83;25795;-63
2021/11/17 06:27:53;;;;;;;35.03;14.73;;;;;;;-0.48;68.15;102314.68;1713871;83;25836;-63
2021/11/17 06:30:22;;;;;;;40.67;13.48;;;;;;;-0.39;68.34;102317.16;1732118;81;25918;-64
2021/11/17 06:32:52;;;;;;;41.60;13.98;;;;;;;-0.30;68.18;102320.54;1770922;79;28196;-66
2021/11/17 06:35:20;;;;;;;31.68;15.78;;;;;;;-0.26;68.13;102307.70;1774741;79;25794;-64
2021/11/17 06:37:47;;;;;;;47.40;18.00;;;;;;;-0.19;68.12;102308.00;1767149;80;25800;-62
2021/11/17 06:40:17;;;;;;;46.20;18.07;;;;;;;-0.14;68.12;102306.16;1760837;80;25885;-63
2021/11/17 06:42:51;;;;;;;45.17;19.57;;;;;;;-0.06;68.11;102308.63;1760842;80;25744;-62
2021/11/17 06:45:40;;;;;;;42.08;21.37;;;;;;;-0.01;67.90;102304.14;1760794;80;27442;-63
2021/11/17 06:48:09;;;;;;;45.03;20.45;;;;;;;0.02;68.08;102305.84;1760781;80;25941;-63
2021/11/17 06:50:40;;;;;;;41.15;20.00;;;;;;;0.05;68.13;102301.37;1761126;80;25819;-62
2021/11/17 06:53:09;;;;;;;52.25;21.10;;;;;;;0.12;68.12;102304.30;1760689;80;26460;-63
2021/11/17 06:55:36;;;;;;;34.03;16.20;;;;;;;0.17;68.31;102299.38;1760844;80;25925;-60
2021/11/17 06:58:04;;;;;;;30.55;13.65;;;;;;;0.22;68.38;102301.47;1760842;81;27541;-62
2021/11/17 07:00:34;;;;;;;47.17;16.00;;;;;;;0.29;68.24;102296.03;1760362;80;26503;-62
2021/11/17 07:03:02;;;;;;;34.67;14.90;;;;;;;0.39;68.33;102296.70;1773178;79;25759;-61
2021/11/17 07:05:29;;;;;;;31.45;12.75;;;;;;;0.50;68.17;102287.19;1794314;78;26344;-62
2021/11/17 07:07:57;;;;;;;29.57;12.05;;;;;;;0.59;68.18;102289.62;1793736;79;25746;-62
2021/11/17 07:10:28;;;;;;;33.35;13.22;;;;;;;0.68;68.10;102289.00;1803483;79;27527;-62
2021/11/17 07:12:56;;;;;;;27.85;11.45;;;;;;;0.76;68.07;102286.61;1805068;79;26568;-60
2021/11/17 07:15:27;;;;;;;25.68;11.48;;;;;;;0.83;67.90;102279.83;1805421;79;26518;-62
2021/11/17 07:17:55;;;;;;;30.60;12.88;;;;;;;0.89;67.83;102273.95;1804963;78;25869;-62
2021/11/17 07:20:23;;;;;;;25.75;11.38;;;;;;;0.97;67.75;102274.20;1805402;79;25805;-62
2021/11/17 07:22:52;;;;;;;23.40;11.63;;;;;;;1.06;67.68;102267.36;1804941;79;27453;-62
2021/11/17 07:25:22;;;;;;;35.00;11.50;;;;;;;1.12;67.59;102269.84;1805033;79;25762;-62
2021/11/17 07:27:49;;;;;;;37.23;13.35;;;;;;;1.19;67.36;102269.25;1805154;79;25750;-63
2021/11/17 07:30:21;;;;;;;25.60;11.60;;;;;;;1.27;67.34;102268.59;1805250;79;25816;-62
2021/11/17 07:32:50;;;;;;;31.45;12.35;;;;;;;1.38;67.17;102274.97;1798961;78;25766;-62
2021/11/17 07:35:21;;;;;;;27.77;12.95;;;;;;;1.46;66.93;102268.13;1794016;78;27462;-61
2021/11/17 07:37:48;;;;;;;30.17;13.80;;;;;;;1.51;66.86;102264.44;1793941;78;26150;-61
2021/11/17 07:40:29;;;;;;;31.00;13.43;;;;;;;1.62;66.88;102264.14;1793343;79;25786;-64
2021/11/17 07:43:01;;;;;;;34.67;14.87;;;;;;;1.79;66.81;102267.67;1791244;77;27031;-64
2021/11/17 07:45:39;;;;;;;33.02;15.03;;;;;;;1.93;66.58;102265.11;1793700;77;25729;-64
2021/11/17 07:48:09;;;;;;;30.85;16.07;;;;;;;2.03;66.29;102274.52;1797086;78;26731;-63
2021/11/17 07:50:45;;;;;;;37.00;15.75;;;;;;;2.16;66.06;102267.07;1793088;79;26437;-61
2021/11/17 07:53:14;;;;;;;34.08;15.10;;;;;;;2.29;65.83;102264.48;1793829;79;25834;-61
2021/11/17 07:55:45;;;;;;;38.70;15.53;;;;;;;2.39;65.37;102259.75;1793657;78;25818;-61
2021/11/17 07:58:13;;;;;;;29.63;13.35;;;;;;;2.47;64.92;102271.01;1794139;79;25921;-61
2021/11/17 08:00:45;;;;;;;25.77;13.38;;;;;;;2.57;64.88;102271.62;1792912;79;27452;-62
2021/11/17 08:03:13;;;;;;;27.93;13.30;;;;;;;2.68;64.62;102270.42;1783389;77;25787;-61
2021/11/17 08:05:41;;;;;;;36.80;13.90;;;;;;;2.78;64.32;102270.55;1763953;80;25810;-61
2021/11/17 08:08:09;;;;;;;32.48;14.40;;;;;;;2.89;64.00;102263.07;1764227;79;26482;-62
2021/11/17 08:10:39;;;;;;;29.42;13.40;;;;;;;2.98;63.75;102272.55;1800878;79;26528;-61
2021/11/17 08:13:07;;;;;;;33.38;13.85;;;;;;;3.08;63.64;102266.02;1803290;79;28156;-61
2021/11/17 08:15:35;;;;;;;25.97;12.28;;;;;;;3.27;63.73;102274.71;1803262;79;26011;-62
2021/11/17 08:18:03;;;;;;;37.67;14.33;;;;;;;3.44;63.16;102276.78;1803216;79;25802;-61
2021/11/17 08:20:29;;;;;;;34.95;13.60;;;;;;;3.54;63.05;102271.55;1803697;79;25792;-61
2021/11/17 08:22:58;;;;;;;29.35;13.75;;;;;;;3.63;62.34;102272.14;1803070;79;26409;-62
2021/11/17 08:25:30;;;;;;;27.37;12.78;;;;;;;3.70;62.03;102274.55;1803502;79;27146;-62
2021/11/17 08:27:58;;;;;;;27.90;13.45;;;;;;;3.81;61.88;102270.64;1803119;79;26510;-63
2021/11/17 08:30:29;;;;;;;23.02;12.03;;;;;;;4.02;61.89;102278.30;1803605;79;25784;-63
2021/11/17 08:32:57;;;;;;;27.17;12.37;;;;;;;4.44;61.85;102271.42;1797843;79;25865;-63
2021/11/17 08:35:33;;;;;;;43.40;15.18;;;;;;;5.12;61.06;102272.70;1793913;79;25727;-63
2021/11/17 08:38:01;;;;;;;46.28;16.00;;;;;;;5.88;58.32;102267.63;1795797;79;27455;-63
2021/11/17 08:40:32;;;;;;;36.95;14.80;;;;;;;6.56;57.22;102267.23;1798819;79;25791;-62
2021/11/17 08:43:00;;;;;;;27.27;14.53;;;;;;;7.11;56.43;102266.81;1798934;79;25807;-62
2021/11/17 08:45:28;;;;;;;36.98;14.00;;;;;;;7.65;55.47;102258.69;1798932;78;25769;-63
2021/11/17 08:47:56;;;;;;;27.93;13.13;;;;;;;8.17;54.51;102258.66;1799183;78;25753;-61
2021/11/17 08:50:28;;;;;;;35.80;12.70;;;;;;;8.64;52.14;102253.85;1798961;79;28290;-62
2021/11/17 08:52:56;;;;;;;24.75;12.40;;;;;;;9.03;52.83;102250.30;1798740;78;25710;-61
2021/11/17 08:55:28;;;;;;;26.05;12.95;;;;;;;9.30;50.92;102247.78;1798887;79;25975;-61
2021/11/17 08:57:58;;;;;;;26.25;12.10;;;;;;;9.63;50.12;102238.66;1798987;78;26420;-63
2021/11/17 09:00:27;;;;;;;26.60;12.95;;;;;;;9.91;49.54;102241.45;1798219;78;26519;-63
2021/11/17 09:02:56;;;;;;;22.55;12.35;;;;;;;10.16;48.20;102240.29;1798736;79;27446;-63
2021/11/17 09:05:28;;;;;;;25.88;11.28;;;;;;;10.39;48.20;102235.31;1798679;79;25960;-62
2021/11/17 09:07:58;;;;;;;25.65;12.13;;;;;;;10.74;47.67;102236.17;1798611;79;26545;-62
2021/11/17 09:10:33;;;;;;;28.50;12.40;;;;;;;10.90;45.88;102229.27;1808559;78;26527;-61
2021/11/17 09:13:00;;;;;;;27.48;12.58;;;;;;;11.01;46.29;102227.69;1810448;79;26442;-61
2021/11/17 09:15:33;;;;;;;24.82;11.95;;;;;;;11.42;46.66;102219.98;1810320;79;28199;-62
2021/11/17 09:18:00;;;;;;;25.45;12.35;;;;;;;11.69;46.03;102222.56;1810146;77;25940;-63
2021/11/17 09:20:28;;;;;;;26.23;13.88;;;;;;;12.03;46.29;102216.15;1810350;79;25671;-62
2021/11/17 09:22:56;;;;;;;20.50;11.00;;;;;;;12.29;44.52;102220.64;1810312;79;26464;-63
2021/11/17 09:25:25;;;;;;;29.30;12.55;;;;;;;12.21;44.57;102211.74;1810459;79;25720;-63
2021/11/17 09:27:53;;;;;;;25.90;11.05;;;;;;;12.28;44.07;102206.77;1810705;79;28137;-62
2021/11/17 09:30:28;;;;;;;23.27;11.88;;;;;;;12.57;43.27;102201.06;1810333;79;25809;-67
2021/11/17 09:32:59;;;;;;;26.07;13.20;;;;;;;12.94;43.00;102205.05;1809478;79;26335;-63
2021/11/17 09:35:31;;;;;;;19.82;11.18;;;;;;;13.23;42.89;102195.17;1777396;80;25796;-63
2021/11/17 09:37:59;;;;;;;18.27;10.63;;;;;;;13.54;41.65;102188.27;1771653;80;25879;-62
2021/11/17 09:40:31;;;;;;;23.52;12.07;;;;;;;13.70;42.06;102187.08;1771674;80;28400;-62
2021/11/17 09:42:58;;;;;;;19.00;10.03;;;;;;;13.83;40.28;102190.51;1754301;80;25812;-62
2021/11/17 09:45:26;;;;;;;20.05;11.15;;;;;;;13.92;40.46;102183.00;1733816;81;25770;-62
2021/11/17 09:47:55;;;;;;;20.15;10.82;;;;;;;14.19;40.01;102175.49;1735076;81;26442;-62
2021/11/17 09:50:31;;;;;;;26.12;11.12;;;;;;;14.73;40.99;102176.47;1735989;81;25819;-62
2021/11/17 09:53:09;;;;;;;21.20;10.48;;;;;;;15.24;38.98;102180.29;1734297;81;27585;-62
2021/11/17 09:55:53;;;;;;;22.67;9.33;;;;;;;15.47;38.16;102173.34;1734015;82;25806;-62
2021/11/17 09:58:26;;;;;;;15.13;9.90;;;;;;;15.62;38.28;102167.95;1735206;81;25711;-62
2021/11/17 10:00:58;;;;;;;23.42;12.43;;;;;;;15.67;36.32;102168.91;1735035;81;26565;-62
2021/11/17 10:03:33;;;;;;;18.77;8.93;;;;;;;15.88;37.22;102170.23;1741092;81;25795;-64
2021/11/17 10:06:32;;;;;;;19.25;9.85;;;;;;;16.26;36.63;102170.00;1720977;82;26670;-63
2021/11/17 10:14:05;;;;;;;20.32;11.45;;;;;;;16.89;35.05;102151.59;1705876;84;25869;-62
2021/11/17 10:16:32;;;;;;;19.25;9.88;;;;;;;17.13;33.62;102155.73;1707160;83;25805;-62
2021/11/17 10:19:29;;;;;;;27.22;10.80;;;;;;;17.07;34.05;102155.83;1708300;83;29604;-62
2021/11/17 10:22:11;;;;;;;20.88;11.68;;;;;;;16.95;33.18;102154.27;1707956;83;26508;-63
2021/11/17 10:24:52;;;;;;;22.75;11.28;;;;;;;17.05;32.82;102153.23;1708332;83;25809;-66
2021/11/17 10:27:28;;;;;;;18.60;10.10;;;;;;;17.36;33.67;102150.81;1747429;81;25834;-63
2021/11/17 10:30:15;;;;;;;16.10;8.83;;;;;;;17.59;32.29;102141.79;1766831;81;25752;-63
2021/11/17 10:32:47;;;;;;;14.15;8.98;;;;;;;17.56;33.11;102145.31;1764596;80;28159;-62
2021/11/17 10:35:25;;;;;;;13.58;7.92;;;;;;;17.78;31.77;102138.15;1778149;77;26260;-63
2021/11/17 10:38:07;;;;;;;28.80;8.15;;;;;;;17.69;31.31;102125.44;1798768;79;25813;-63
2021/11/17 10:40:44;;;;;;;20.05;8.95;;;;;;;17.65;32.13;102137.13;1789435;79;26530;-64
2021/11/17 10:43:23;;;;;;;15.93;9.48;;;;;;;17.81;32.34;102136.47;1777114;79;25755;-64
2021/11/17 10:46:04;;;;;;;15.65;8.08;;;;;;;18.28;31.53;102134.66;1798337;79;28195;-63
2021/11/17 10:48:36;;;;;;;17.10;8.33;;;;;;;18.36;30.31;102127.92;1799082;78;25739;-63
2021/11/17 10:51:15;;;;;;;15.70;6.97;;;;;;;18.25;30.20;102127.66;1798856;78;25770;-62
2021/11/17 10:53:45;;;;;;;19.75;7.80;;;;;;;18.67;31.14;102122.10;1797021;78;25825;-63
2021/11/17 10:56:16;;;;;;;17.05;6.42;;;;;;;19.42;31.12;102114.45;1798966;79;25957;-63
2021/11/17 10:58:48;;;;;;;16.07;6.35;;;;;;;20.05;28.90;102119.19;1799232;79;28586;-63
2021/11/17 11:01:32;;;;;;;15.15;3.70;;;;;;;20.37;29.01;102122.52;1797460;78;25897;-63
2021/11/17 11:04:07;;;;;;;8.68;4.72;;;;;;;20.55;27.09;102110.58;1798858;76;25811;-64
2021/11/17 11:06:43;;;;;;;18.40;4.10;;;;;;;20.14;26.37;102118.20;1799056;78;25810;-63
2021/11/17 11:09:20;;;;;;;10.13;3.95;;;;;;;19.80;27.15;102108.16;1802161;79;25880;-63
2021/11/17 11:11:53;;;;;;;9.73;4.40;;;;;;;19.30;27.17;102107.06;1771009;80;27864;-66
2021/11/17 11:14:28;;;;;;;20.23;5.53;;;;;;;19.21;26.73;102108.38;1810686;78;25715;-64
2021/11/17 11:17:45;;;;;;;16.25;4.60;;;;;;;19.38;26.42;102113.93;1771599;79;25726;-66
2021/11/17 11:20:25;;;;;;;12.37;4.20;;;;;;;19.35;25.93;102111.02;1810693;79;26982;-65
2021/11/17 11:23:27;;;;;;;14.98;4.30;;;;;;;19.35;25.86;102100.63;1810450;78;25805;-64
2021/11/17 11:26:15;;;;;;;11.65;3.67;;;;;;;19.07;25.77;102096.19;1809830;78;27513;-64
2021/11/17 11:28:56;;;;;;;28.65;4.03;;;;;;;18.62;26.02;102094.45;1771229;79;25799;-63
2021/11/17 11:31:34;;;;;;;7.90;4.45;;;;;;;18.20;26.40;102093.20;1768101;80;26563;-64
2021/11/17 11:34:07;;;;;;;10.65;3.83;;;;;;;17.71;26.40;102094.83;1740634;81;25788;-65
2021/11/17 11:36:47;;;;;;;12.15;4.22;;;;;;;17.11;26.71;102087.91;1740852;82;25964;-64
2021/11/17 11:39:20;;;;;;;8.68;4.08;;;;;;;16.44;27.48;102082.41;1739143;82;27389;-65
2021/11/17 11:42:09;;;;;;;18.73;4.60;;;;;;;15.72;28.26;102083.05;1740974;81;25748;-65
2021/11/17 11:44:50;;;;;;;11.00;4.03;;;;;;;15.08;28.70;102081.81;1740950;82;25733;-64
2021/11/17 11:47:28;;;;;;;10.98;3.98;;;;;;;14.37;29.40;102079.23;1778154;79;25846;-63
2021/11/17 11:50:01;;;;;;;8.78;4.17;;;;;;;13.83;30.04;102080.12;1784858;79;26371;-65
2021/11/17 11:52:33;;;;;;;14.85;4.90;;;;;;;13.33;30.39;102077.27;1771192;80;27500;-66
2021/11/17 11:55:11;;;;;;;10.20;3.70;;;;;;;12.79;31.04;102078.30;1771187;80;26013;-65
2021/11/17 11:57:52;;;;;;;11.85;3.67;;;;;;;12.36;31.84;102079.77;1805559;79;25714;-63
2021/11/17 12:00:36;;;;;;;6.90;3.45;;;;;;;12.15;32.32;102071.92;1740295;82;26451;-64
2021/11/17 12:03:08;;;;;;;10.98;3.47;;;;;;;11.95;32.60;102065.29;1761275;79;25820;-64
2021/11/17 12:06:04;;;;;;;8.08;3.60;;;;;;;11.70;32.92;102070.64;1792379;78;27485;-64
2021/11/17 12:09:01;;;;;;;12.03;4.78;;;;;;;11.53;33.20;102067.80;1797447;78;25880;-63
2021/11/17 12:11:31;;;;;;;13.55;4.70;;;;;;;11.27;33.46;102065.15;1780485;77;26024;-63
2021/11/17 12:14:12;;;;;;;20.10;4.55;;;;;;;11.10;34.01;102065.48;1822824;77;26180;-65
2021/11/17 12:16:47;;;;;;;8.23;3.80;;;;;;;11.00;34.50;102064.40;1844013;77;25891;-63
2021/11/17 12:19:30;;;;;;;15.53;5.08;;;;;;;10.88;34.84;102060.73;1844093;77;28364;-63
2021/11/17 12:22:14;;;;;;;10.58;4.08;;;;;;;10.75;35.07;102058.03;1843965;77;26405;-63
2021/11/17 12:24:47;;;;;;;13.13;3.85;;;;;;;10.65;35.37;102049.75;1844084;77;25730;-63
2021/11/17 12:27:21;;;;;;;8.03;3.22;;;;;;;10.47;35.45;102052.72;1843316;77;25915;-64
2021/11/17 12:29:59;;;;;;;10.03;3.80;;;;;;;10.32;35.59;102051.89;1843618;77;25813;-65
2021/11/17 12:32:35;;;;;;;12.33;3.35;;;;;;;10.23;35.73;102045.78;1813101;77;27492;-64
2021/11/17 12:35:10;;;;;;;10.25;4.15;;;;;;;10.13;36.24;102048.70;1768938;79;25725;-64
2021/11/17 12:38:00;;;;;;;9.10;3.98;;;;;;;10.00;36.77;102055.38;1772162;79;25724;-62
2021/11/17 12:40:53;;;;;;;11.78;4.10;;;;;;;9.84;37.19;102055.51;1764832;80;26535;-62
2021/11/17 12:43:44;;;;;;;10.32;3.67;;;;;;;9.66;37.45;102044.99;1765539;79;25794;-62
2021/11/17 12:46:35;;;;;;;17.65;4.70;;;;;;;9.60;37.42;102053.45;1764007;79;27486;-63
2021/11/17 12:49:25;;;;;;;11.05;4.28;;;;;;;9.55;37.53;102048.84;1765811;81;25906;-62
2021/11/17 12:52:31;;;;;;;9.75;3.40;;;;;;;9.55;37.54;102046.16;1750437;81;26435;-63
2021/11/17 12:55:03;;;;;;;12.50;3.17;;;;;;;9.48;37.59;102040.80;1765130;81;25808;-63
2021/11/17 12:57:36;;;;;;;19.45;3.80;;;;;;;9.40;37.49;102035.44;1762109;79;26517;-63
2021/11/17 13:00:20;;;;;;;12.93;4.12;;;;;;;9.31;37.53;102034.67;1744044;81;27551;-63
2021/11/17 13:02:59;;;;;;;13.80;4.00;;;;;;;9.18;37.69;102037.77;1775083;79;25742;-63
2021/11/17 13:05:46;;;;;;;11.68;3.98;;;;;;;9.06;37.65;102036.22;1799004;79;25810;-63
2021/11/17 13:08:14;;;;;;;;;;;;;;;8.97;37.64;102032.77;1800928;78;25857;-63
2021/11/17 13:11:03;;;;;;;11.35;3.70;;;;;;;8.81;37.73;102032.83;1777712;79;25962;-63
2021/11/17 13:13:55;;;;;;;24.90;4.85;;;;;;;8.73;37.97;102031.09;1774227;80;28280;-64
2021/11/17 13:16:41;;;;;;;18.42;6.20;;;;;;;8.70;38.17;102032.16;1776610;79;26453;-64
2021/11/17 13:19:31;;;;;;;24.90;6.45;;;;;;;8.64;38.44;102026.29;1777181;79;25710;-64
2021/11/17 13:22:20;;;;;;;14.13;4.83;;;;;;;8.57;38.71;102020.42;1776018;79;26003;-61
2021/11/17 13:24:51;;;;;;;14.47;4.90;;;;;;;8.45;38.68;102017.52;1777175;80;25794;-63
2021/11/17 13:27:28;;;;;;;13.40;4.55;;;;;;;8.34;38.90;102016.43;1776861;79;27533;-63
2021/11/17 13:30:28;;;;;;;15.60;5.42;;;;;;;8.21;39.24;102011.78;1773706;80;25992;-63
2021/11/17 13:32:56;;;;;;;15.25;4.62;;;;;;;8.10;39.39;102017.78;1791581;79;25747;-63
2021/11/17 13:35:37;;;;;;;24.45;4.87;;;;;;;8.04;39.73;102014.59;1801255;78;25810;-61
2021/11/17 13:38:15;;;;;;;16.42;5.45;;;;;;;7.95;39.75;102013.28;1801536;79;25675;-63
2021/11/17 13:40:48;;;;;;;12.43;5.15;;;;;;;7.88;40.05;102018.61;1801539;79;28477;-63
2021/11/17 13:43:17;;;;;;;17.10;4.87;;;;;;;7.81;40.29;102021.66;1805503;79;25809;-63
2021/11/17 13:45:51;;;;;;;18.90;4.70;;;;;;;7.74;40.35;102026.98;1810690;79;25758;-63
2021/11/17 13:48:23;;;;;;;18.67;4.72;;;;;;;7.67;40.63;102022.89;1810524;79;25834;-64
2021/11/17 13:50:51;;;;;;;20.20;5.65;;;;;;;7.58;40.68;102028.31;1810674;79;25932;-62
2021/11/17 13:53:21;;;;;;;14.00;5.72;;;;;;;7.50;40.75;102026.05;1810304;79;27459;-62
2021/11/17 13:56:05;;;;;;;16.02;5.87;;;;;;;7.43;41.03;102027.34;1810459;79;25751;-63
2021/11/17 13:58:34;;;;;;;18.35;5.70;;;;;;;7.38;41.05;102035.23;1809811;78;25781;-63
2021/11/17 14:01:04;;;;;;;16.50;5.42;;;;;;;7.31;41.30;102036.03;1809790;79;26414;-63
2021/11/17 14:03:31;;;;;;;23.18;5.92;;;;;;;7.26;41.30;102033.61;1809925;77;26409;-63
2021/11/17 14:06:03;;;;;;;19.23;6.45;;;;;;;7.24;41.41;102040.88;1808806;79;28329;-63
2021/11/17 14:08:32;;;;;;;24.07;5.83;;;;;;;7.19;41.46;102041.59;1809083;79;25760;-63
2021/11/17 14:11:01;;;;;;;17.45;7.42;;;;;;;7.11;41.68;102035.78;1810231;77;25687;-63
2021/11/17 14:13:30;;;;;;;29.67;7.80;;;;;;;7.02;41.81;102035.82;1810697;77;26309;-63
2021/11/17 14:15:57;;;;;;;25.35;8.45;;;;;;;6.93;41.91;102031.81;1810812;78;25946;-63
2021/11/17 14:18:26;;;;;;;23.98;6.95;;;;;;;6.85;41.96;102034.03;1810644;77;28321;-63
2021/11/17 14:20:53;;;;;;;27.02;8.80;;;;;;;6.76;42.21;102042.08;1810751;78;25797;-64
2021/11/17 14:23:20;;;;;;;27.17;7.72;;;;;;;6.69;42.23;102040.64;1810460;77;25801;-63
2021/11/17 14:25:48;;;;;;;25.23;7.20;;;;;;;6.63;42.38;102043.64;1810628;77;25854;-64
2021/11/17 14:28:23;;;;;;;22.85;7.47;;;;;;;6.54;42.68;102043.17;1810790;79;25747;-63
2021/11/17 14:31:07;;;;;;;27.87;7.47;;;;;;;6.46;42.81;102044.05;1811077;79;27480;-64
2021/11/17 14:33:34;;;;;;;;;;;;;;;6.37;43.01;102043.17;1803329;78;25672;-63
2021/11/17 14:36:06;;;;;;;25.40;6.97;;;;;;;6.28;43.06;102042.30;1805128;77;25749;-63
2021/11/17 14:38:34;;;;;;;24.85;6.83;;;;;;;6.19;43.36;102048.50;1741121;82;25802;-63
2021/11/17 14:41:03;;;;;;;14.50;6.22;;;;;;;6.09;43.77;102046.77;1741275;82;26430;-63
2021/11/17 14:43:31;;;;;;;31.68;7.45;;;;;;;5.99;43.73;102043.23;1741011;82;27471;-63